Latest Coastal Weather Observations for Shark Bay Airport

IDW60701

Issued at 10:03 am WST Sunday 25 June 2017 (issued every 10 minutes, with the page automatically refreshed every 10 minutes)

About coastal observations | Map of coastal stations | Coastal observations for WA | Marine services | Other Formats
Station Details ID: 006105 Name: SHARK BAY AIRPORT Lat: -25.89 Lon: 113.58 Height: 33.8 m
Data from the previous 72 hours. | See also: Recent months at Shark Bay Airport
Date/Time
WST
Temp
°C
Wind Pressure Rain since
9am
mm
Weather Cloud Vis
km
Sea
Height
m
Swell
Dir  Spd
kts
Gust
kts
hPa Trend Height
m
Period
s
Dir
25/10:00am 19.1 SE 13 19 1020.6 - 0.0 - - - - - - -
25/09:30am 17.8 SE 14 19 1020.7 - 0.0 - - - - - - -
25/09:00am 16.7 SE 13 18 1020.7 - 0.0 - - - - - - -
25/08:30am 15.6 SE 10 14 1020.4 - 0.0 - - - - - - -
25/08:00am 12.6 SSE 7 9 1020.2 - 0.0 - - - - - - -
25/07:30am 10.7 SSE 6 9 1019.7 - 0.0 - - - - - - -
25/07:00am 10.7 SSE 7 9 1019.1 - 0.0 - - - - - - -
25/06:30am 10.9 SSE 6 8 1018.7 - 0.0 - - - - - - -
25/06:00am 11.6 SE 7 9 1018.3 - 0.0 - - - - - - -
25/05:30am 12.8 SE 8 11 1018.0 - 0.0 - - - - - - -
25/05:00am 13.6 SE 10 14 1017.9 - 0.0 - - - - - - -
25/04:30am 13.9 SE 9 13 1017.9 - 0.0 - - - - - - -
25/04:00am 14.1 SE 9 12 1017.8 - 0.0 - - - - - - -
25/03:30am 14.6 SE 10 13 1017.8 - 0.0 - - - - - - -
25/03:00am 14.5 SE 9 12 1017.7 - 0.0 - - - - - - -
25/02:30am 14.6 SE 10 13 1017.6 - 0.0 - - - - - - -
25/02:00am 14.6 SE 10 13 1017.8 - 0.0 - - - - - - -
25/01:30am 14.1 SE 9 11 1017.9 - 0.0 - - - - - - -
25/01:00am 14.8 SSE 8 10 1017.8 - 0.0 - - - - - - -
25/12:30am 15.8 SSE 9 11 1017.8 - 0.0 - - - - - - -
25/12:00am 16.6 SE 9 13 1017.8 - 0.0 - - - - - - -
 
Date/Time
WST
Temp
°C
Wind Pressure Rain since
9am
mm
Weather Cloud Vis
km
Sea
Height
m
Swell
Dir  Spd
kts
Gust
kts
hPa Trend Height
m
Period
s
Dir
24/11:30pm 17.1 SSE 11 15 1017.8 - 0.0 - - - - - - -
24/11:00pm 17.0 SSE 10 13 1017.8 - 0.0 - - - - - - -
24/10:30pm 17.5 SSE 12 16 1017.5 - 0.0 - - - - - - -
24/10:00pm 17.5 SSE 11 16 1017.1 - 0.0 - - - - - - -
24/09:30pm 17.9 SSE 10 15 1016.9 - 0.0 - - - - - - -
24/09:00pm 18.3 SSE 8 12 1016.6 - 0.0 - - - - - - -
24/08:30pm 17.8 S 8 9 1016.1 - 0.0 - - - - - - -
24/08:00pm 18.0 S 8 10 1015.6 - 0.0 - - - - - - -
24/07:30pm 18.3 SSW 9 11 1015.3 - 0.0 - - - - - - -
24/07:00pm 18.8 SSW 9 12 1015.0 - 0.0 - - - - - - -
24/06:30pm 19.2 SSW 9 12 1014.9 - 0.0 - - - - - - -
24/06:00pm 19.8 SSW 12 15 1014.7 - 0.0 - - - - - - -
24/05:30pm 20.6 SSW 13 19 1014.6 - 0.0 - - - - - - -
24/05:00pm 21.8 S 12 17 1014.3 - 0.0 - - - - - - -
24/04:30pm 22.7 SSW 12 15 1014.0 - 0.0 - - - - - - -
24/04:00pm 23.1 SW 12 15 1013.8 - 0.0 - - - - - - -
24/03:30pm 24.0 SW 10 14 1013.6 - 0.0 - - - - - - -
24/03:00pm 24.4 S 9 15 1014.0 - 0.0 - - - - - - -
24/02:30pm 24.6 ESE 11 15 1014.2 - 0.0 - - - - - - -
24/02:00pm 24.8 SE 9 14 1014.5 - 0.0 - - - - - - -
24/01:30pm 24.0 SSE 7 11 1014.7 - 0.0 - - - - - - -
24/01:00pm 24.1 ESE 9 15 1015.2 - 0.0 - - - - - - -
24/12:30pm 23.6 ESE 9 14 1015.6 - 0.0 - - - - - - -
24/12:00pm 23.2 ESE 10 15 1016.1 - 0.0 - - - - - - -
24/11:30am 22.7 E 9 12 1016.6 - 0.0 - - - - - - -
24/11:00am 21.7 E 9 13 1016.8 - 0.0 - - - - - - -
24/10:30am 21.1 ESE 10 14 1017.0 - 0.0 - - - - - - -
24/10:00am 20.5 E 10 14 1017.2 - 0.0 - - - - - - -
24/09:30am 19.1 ENE 10 14 1017.0 - 0.0 - - - - - - -
24/09:00am 16.8 E 7 9 1016.9 - 0.2 - - - - - - -
24/08:30am 14.8 E 5 8 1016.8 - 0.2 - - - - - - -
24/08:00am 12.6 E 6 7 1016.6 - 0.2 - - - - - - -
24/07:30am 10.5 ENE 6 7 1016.1 - 0.2 - - - - - - -
24/07:00am 10.8 NE 8 9 1015.5 - 0.2 - - - - - - -
24/06:30am 9.8 ENE 6 7 1015.4 - 0.2 - - - - - - -
24/06:00am 10.2 ENE 6 7 1015.2 - 0.2 - - - - - - -
24/05:30am 10.9 ENE 6 6 1015.2 - 0.2 - - - - - - -
24/05:00am 10.8 ENE 6 7 1015.2 - 0.2 - - - - - - -
24/04:30am 10.9 ENE 7 8 1015.3 - 0.2 - - - - - - -
24/04:00am 11.0 ENE 6 7 1015.5 - 0.2 - - - - - - -
24/03:30am 11.1 ENE 5 6 1015.5 - 0.2 - - - - - - -
24/03:00am 10.8 NE 6 6 1015.5 - 0.2 - - - - - - -
24/02:30am 11.1 NE 6 6 1015.5 - 0.2 - - - - - - -
24/02:00am 12.8 NE 8 9 1015.6 - 0.2 - - - - - - -
24/01:30am 11.4 NE 6 7 1015.8 - 0.2 - - - - - - -
24/01:00am 11.4 NE 6 7 1015.7 - 0.2 - - - - - - -
24/12:30am 11.5 NE 5 5 1015.7 - 0.2 - - - - - - -
24/12:00am 12.2 NE 6 7 1016.0 - 0.2 - - - - - - -
 
Date/Time
WST
Temp
°C
Wind Pressure Rain since
9am
mm
Weather Cloud Vis
km
Sea
Height
m
Swell
Dir  Spd
kts
Gust
kts
hPa Trend Height
m
Period
s
Dir
23/11:30pm 11.6 NE 6 6 1016.4 - 0.2 - - - - - - -
23/11:00pm 11.8 NNE 5 6 1016.3 - 0.2 - - - - - - -
23/10:30pm 12.4 NNE 6 8 1016.3 - 0.2 - - - - - - -
23/10:00pm 12.3 NE 7 7 1016.3 - 0.2 - - - - - - -
23/09:30pm 13.3 NNE 7 7 1016.2 - 0.2 - - - - - - -
23/09:00pm 13.6 NE 7 8 1016.2 - 0.2 - - - - - - -
23/08:30pm 14.2 NE 6 7 1016.0 - 0.2 - - - - - - -
23/08:00pm 14.2 N 2 3 1016.0 - 0.2 - - - - - - -
23/07:30pm 15.9 NNW 4 5 1015.8 - 0.2 - - - - - - -
23/07:00pm 16.2 NW 3 4 1015.6 - 0.2 - - - - - - -
23/06:30pm 17.2 NW 4 5 1015.3 - 0.2 - - - - - - -
23/06:00pm 18.4 WNW 5 6 1015.2 - 0.2 - - - - - - -
23/05:30pm 19.4 W 5 7 1014.8 - 0.2 - - - - - - -
23/05:00pm 20.1 WNW 6 8 1014.7 - 0.2 - - - - - - -
23/04:30pm 21.2 W 7 9 1014.8 - 0.2 - - - - - - -
23/04:00pm 21.6 W 9 11 1014.9 - 0.2 - - - - - - -
23/03:30pm 21.5 W 10 13 1015.2 - 0.2 - - - - - - -
23/03:00pm 22.1 W 9 13 1015.1 - 0.2 - - - - - - -
23/02:30pm 21.7 W 11 14 1015.0 - 0.2 - - - - - - -
23/02:00pm 21.8 W 12 17 1015.5 - 0.2 - - - - - - -
23/01:30pm 22.0 W 11 15 1015.7 - 0.2 - - - - - - -
23/01:00pm 21.2 W 15 19 1016.3 - 0.2 - - - - - - -
23/12:30pm 22.3 WSW 11 16 1016.8 - 0.2 - - - - - - -
23/12:00pm 23.3 WNW 11 15 1017.2 - 0.0 - - - - - - -
23/11:30am 22.4 WNW 10 14 1017.6 - 0.0 - - - - - - -
23/11:00am 21.7 NW 10 14 1017.9 - 0.0 - - - - - - -
23/10:30am 21.1 NW 10 14 1018.4 - 0.0 - - - - - - -
23/10:00am 20.1 NNW 8 12 1018.4 - 0.0 - - - - - - -
23/09:30am 17.8 N 4 7 1018.6 - 0.0 - - - - - - -
23/09:00am 14.5 CALM 0 1 1018.8 - 1.2 Recent precip. - - - - - -
23/08:30am 13.2 NE 3 6 1018.3 - 1.0 - - - - - - -
23/08:00am 13.6 N 6 7 1018.3 - 1.0 - - - - - - -
23/07:30am 10.8 N 7 7 1017.7 - 1.0 - - - - - - -
23/07:00am 10.6 N 7 8 1017.4 - 1.0 - - - - - - -
23/06:30am 9.9 N 7 7 1017.3 - 1.0 - - - - - - -
23/06:00am 8.0 N 5 6 1017.1 - 1.0 - - - - - - -
23/05:30am 9.6 N 5 6 1017.3 - 1.0 - - - - - - -
23/05:00am 9.0 N 4 5 1017.6 - 1.0 - - - - - - -
23/04:30am 9.3 N 4 5 1017.9 - 1.0 - - - - - - -
23/04:00am 11.3 N 7 7 1018.1 - 1.0 - - - - - - -
23/03:30am 11.9 N 6 6 1018.3 - 1.0 - - - - - - -
23/03:00am 12.9 N 6 7 1018.3 - 1.0 - - - - - - -
23/02:30am 13.1 N 6 7 1018.5 - 1.0 - - - - - - -
23/02:00am 12.3 N 4 5 1018.5 - 1.0 - - - - - - -
23/01:30am 13.3 NNW 3 7 1018.8 - 1.0 - - - - - - -
23/01:00am 13.9 N 6 7 1019.1 - 1.0 - - - - - - -
23/12:30am 13.8 NNE 4 5 1019.1 - 1.0 - - - - - - -
23/12:00am 13.9 ESE 3 4 1019.3 - 1.0 - - - - - - -
 
Date/Time
WST
Temp
°C
Wind Pressure Rain since
9am
mm
Weather Cloud Vis
km
Sea
Height
m
Swell
Dir  Spd
kts
Gust
kts
hPa Trend Height
m
Period
s
Dir
22/11:30pm 14.6 CALM 0 0 1019.5 - 1.0 - - - - - - -
22/11:00pm 15.1 N 4 4 1019.9 - 1.0 - - - - - - -
22/10:30pm 15.2 NW 6 8 1020.3 - 0.2 - - - - - - -
22/10:00pm 15.0 CALM 0 0 1020.2 - 0.2 - - - - - - -
22/09:30pm 15.5 S 1 4 1020.2 - 0.2 - - - - - - -
22/09:00pm 15.9 S 5 6 1020.1 - 0.2 - - - - - - -
22/08:30pm 15.8 S 6 7 1019.9 - 0.2 - - - - - - -
22/08:00pm 14.9 N 6 7 1019.7 - 0.2 - - - - - - -
22/07:30pm 15.6 N 6 7 1019.7 - 0.2 - - - - - - -
22/07:00pm 15.9 SSW 6 7 1019.6 - 0.2 - - - - - - -
22/06:30pm 16.5 SSW 6 7 1019.3 - 0.2 - - - - - - -
22/06:00pm 17.4 SSW 8 11 1019.0 - 0.2 - - - - - - -
22/05:30pm 18.4 SSW 9 13 1018.7 - 0.2 - - - - - - -
22/05:00pm 19.3 SW 12 17 1018.6 - 0.2 - - - - - - -
22/04:30pm 20.3 SW 12 15 1018.4 - 0.2 - - - - - - -
22/04:00pm 20.7 SW 13 17 1018.4 - 0.2 - - - - - - -
22/03:30pm 21.1 SW 12 18 1018.4 - 0.2 - - - - - - -
22/03:00pm 20.6 SW 13 17 1018.7 - 0.2 - - - - - - -
22/02:30pm 21.0 SW 13 19 1018.7 - 0.2 - - - - - - -
22/02:00pm 20.9 SSW 12 17 1018.6 - 0.2 - - - - - - -
22/01:30pm 20.3 SW 14 20 1018.9 - 0.2 - - - - - - -
22/01:00pm 20.1 SSW 11 14 1019.2 - 0.2 - - - - - - -
22/12:30pm 20.7 SSW 11 18 1019.5 - 0.0 - - - - - - -
22/12:00pm 19.4 SSW 13 22 1020.0 - 0.0 - - - - - - -
22/11:30am 20.5 S 12 17 1020.3 - 0.0 - - - - - - -
22/11:00am 19.7 SW 13 20 1020.7 - 0.0 - - - - - - -
22/10:30am 19.6 SSW 10 15 1020.8 - 0.0 - - - - - - -

Other Formats:

Comma delimited format used in spreadsheet applications
http://www.bom.gov.au/fwo/IDW60701/IDW60701.95402.axf

JavaScript Object Notation format (JSON) in row-major order
http://www.bom.gov.au/fwo/IDW60701/IDW60701.95402.json